sensor_id;sensor_type;location;lat;lon;timestamp;P1;durP1;ratioP1;P2;durP2;ratioP2
26686;SDS011;14298;50.900;4.648;2022-10-16T00:01:40;5.57;;;2.73;;
26686;SDS011;14298;50.900;4.648;2022-10-16T00:04:08;6.60;;;3.00;;
26686;SDS011;14298;50.900;4.648;2022-10-16T00:06:37;7.57;;;4.77;;
26686;SDS011;14298;50.900;4.648;2022-10-16T00:09:05;6.37;;;3.10;;
26686;SDS011;14298;50.900;4.648;2022-10-16T00:11:35;3.93;;;2.20;;
26686;SDS011;14298;50.900;4.648;2022-10-16T00:14:06;1.60;;;1.00;;
26686;SDS011;14298;50.900;4.648;2022-10-16T00:16:37;4.57;;;1.80;;
26686;SDS011;14298;50.900;4.648;2022-10-16T00:19:06;1.50;;;1.00;;
26686;SDS011;14298;50.900;4.648;2022-10-16T00:21:34;2.67;;;0.87;;
26686;SDS011;14298;50.900;4.648;2022-10-16T00:24:04;2.77;;;0.97;;
26686;SDS011;14298;50.900;4.648;2022-10-16T00:26:35;1.27;;;0.87;;
26686;SDS011;14298;50.900;4.648;2022-10-16T00:29:05;1.50;;;0.80;;
26686;SDS011;14298;50.900;4.648;2022-10-16T00:31:34;2.17;;;0.90;;
26686;SDS011;14298;50.900;4.648;2022-10-16T00:34:02;3.27;;;0.77;;
26686;SDS011;14298;50.900;4.648;2022-10-16T00:36:31;1.40;;;1.00;;
26686;SDS011;14298;50.900;4.648;2022-10-16T00:38:59;1.40;;;0.70;;
26686;SDS011;14298;50.900;4.648;2022-10-16T00:41:28;1.70;;;0.97;;
26686;SDS011;14298;50.900;4.648;2022-10-16T00:44:01;4.57;;;0.83;;
26686;SDS011;14298;50.900;4.648;2022-10-16T00:49:15;1.13;;;0.80;;
26686;SDS011;14298;50.900;4.648;2022-10-16T00:51:46;3.27;;;1.07;;
26686;SDS011;14298;50.900;4.648;2022-10-16T00:54:23;1.97;;;0.80;;
26686;SDS011;14298;50.900;4.648;2022-10-16T00:56:48;2.60;;;1.10;;
26686;SDS011;14298;50.900;4.648;2022-10-16T00:59:19;1.20;;;0.70;;
26686;SDS011;14298;50.900;4.648;2022-10-16T01:01:51;0.83;;;0.80;;
26686;SDS011;14298;50.900;4.648;2022-10-16T01:04:20;1.17;;;1.00;;
26686;SDS011;14298;50.900;4.648;2022-10-16T01:07:04;2.47;;;1.07;;
26686;SDS011;14298;50.900;4.648;2022-10-16T01:09:51;2.43;;;1.00;;
26686;SDS011;14298;50.900;4.648;2022-10-16T01:12:40;3.57;;;0.93;;
26686;SDS011;14298;50.900;4.648;2022-10-16T01:15:34;1.47;;;1.07;;
26686;SDS011;14298;50.900;4.648;2022-10-16T01:18:05;1.40;;;1.20;;
26686;SDS011;14298;50.900;4.648;2022-10-16T01:20:37;2.23;;;1.23;;
26686;SDS011;14298;50.900;4.648;2022-10-16T01:26:20;2.10;;;1.20;;
26686;SDS011;14298;50.900;4.648;2022-10-16T01:28:55;2.80;;;1.10;;
26686;SDS011;14298;50.900;4.648;2022-10-16T01:31:29;3.73;;;1.10;;
26686;SDS011;14298;50.900;4.648;2022-10-16T01:34:05;1.40;;;1.00;;
26686;SDS011;14298;50.900;4.648;2022-10-16T01:36:37;3.60;;;1.17;;
26686;SDS011;14298;50.900;4.648;2022-10-16T01:39:22;2.80;;;1.13;;
26686;SDS011;14298;50.900;4.648;2022-10-16T01:42:01;3.03;;;1.20;;
26686;SDS011;14298;50.900;4.648;2022-10-16T01:44:37;2.73;;;1.30;;
26686;SDS011;14298;50.900;4.648;2022-10-16T01:47:08;1.37;;;1.10;;
26686;SDS011;14298;50.900;4.648;2022-10-16T01:49:38;2.30;;;1.03;;
26686;SDS011;14298;50.900;4.648;2022-10-16T01:52:10;4.50;;;1.20;;
26686;SDS011;14298;50.900;4.648;2022-10-16T01:54:40;2.07;;;1.20;;
26686;SDS011;14298;50.900;4.648;2022-10-16T01:57:11;4.10;;;1.20;;
26686;SDS011;14298;50.900;4.648;2022-10-16T01:59:45;4.07;;;1.13;;
26686;SDS011;14298;50.900;4.648;2022-10-16T02:02:16;3.10;;;0.93;;
26686;SDS011;14298;50.900;4.648;2022-10-16T02:04:52;1.93;;;1.03;;
26686;SDS011;14298;50.900;4.648;2022-10-16T02:07:21;3.10;;;1.10;;
26686;SDS011;14298;50.900;4.648;2022-10-16T02:09:50;4.40;;;1.20;;
26686;SDS011;14298;50.900;4.648;2022-10-16T02:12:29;1.20;;;1.10;;
26686;SDS011;14298;50.900;4.648;2022-10-16T02:15:02;4.47;;;1.53;;
26686;SDS011;14298;50.900;4.648;2022-10-16T02:17:31;2.40;;;1.30;;
26686;SDS011;14298;50.900;4.648;2022-10-16T02:19:59;3.50;;;1.53;;
26686;SDS011;14298;50.900;4.648;2022-10-16T02:22:33;2.20;;;1.40;;
26686;SDS011;14298;50.900;4.648;2022-10-16T02:25:15;3.90;;;1.20;;
26686;SDS011;14298;50.900;4.648;2022-10-16T02:30:28;4.00;;;1.47;;
26686;SDS011;14298;50.900;4.648;2022-10-16T02:33:02;3.40;;;1.30;;
26686;SDS011;14298;50.900;4.648;2022-10-16T02:35:33;2.63;;;1.40;;
26686;SDS011;14298;50.900;4.648;2022-10-16T02:38:03;2.03;;;1.50;;
26686;SDS011;14298;50.900;4.648;2022-10-16T02:46:01;2.80;;;1.40;;
26686;SDS011;14298;50.900;4.648;2022-10-16T02:48:29;3.90;;;1.30;;
26686;SDS011;14298;50.900;4.648;2022-10-16T02:50:57;1.73;;;1.33;;
26686;SDS011;14298;50.900;4.648;2022-10-16T02:53:26;3.40;;;1.30;;
26686;SDS011;14298;50.900;4.648;2022-10-16T02:55:54;3.40;;;1.70;;
26686;SDS011;14298;50.900;4.648;2022-10-16T02:58:22;2.93;;;1.47;;
26686;SDS011;14298;50.900;4.648;2022-10-16T03:00:51;2.77;;;0.93;;
26686;SDS011;14298;50.900;4.648;2022-10-16T03:03:19;4.80;;;1.50;;
26686;SDS011;14298;50.900;4.648;2022-10-16T03:05:47;1.33;;;1.23;;
26686;SDS011;14298;50.900;4.648;2022-10-16T03:08:15;5.60;;;1.50;;
26686;SDS011;14298;50.900;4.648;2022-10-16T03:13:33;3.17;;;1.50;;
26686;SDS011;14298;50.900;4.648;2022-10-16T03:16:01;3.27;;;1.60;;
26686;SDS011;14298;50.900;4.648;2022-10-16T03:18:30;3.77;;;1.57;;
26686;SDS011;14298;50.900;4.648;2022-10-16T03:20:58;1.40;;;1.30;;
26686;SDS011;14298;50.900;4.648;2022-10-16T03:23:26;6.83;;;1.40;;
26686;SDS011;14298;50.900;4.648;2022-10-16T03:25:55;2.47;;;1.60;;
26686;SDS011;14298;50.900;4.648;2022-10-16T03:28:24;2.50;;;1.50;;
26686;SDS011;14298;50.900;4.648;2022-10-16T03:30:52;3.23;;;1.50;;
26686;SDS011;14298;50.900;4.648;2022-10-16T03:33:20;3.13;;;1.30;;
26686;SDS011;14298;50.900;4.648;2022-10-16T03:35:52;5.33;;;1.60;;
26686;SDS011;14298;50.900;4.648;2022-10-16T03:38:21;3.40;;;1.60;;
26686;SDS011;14298;50.900;4.648;2022-10-16T03:40:50;2.57;;;1.53;;
26686;SDS011;14298;50.900;4.648;2022-10-16T03:43:18;3.10;;;1.70;;
26686;SDS011;14298;50.900;4.648;2022-10-16T03:45:47;2.87;;;1.80;;
26686;SDS011;14298;50.900;4.648;2022-10-16T03:48:18;4.13;;;1.80;;
26686;SDS011;14298;50.900;4.648;2022-10-16T03:56:22;1.80;;;1.63;;
26686;SDS011;14298;50.900;4.648;2022-10-16T03:58:50;4.23;;;1.63;;
26686;SDS011;14298;50.900;4.648;2022-10-16T04:01:20;1.87;;;1.57;;
26686;SDS011;14298;50.900;4.648;2022-10-16T04:03:48;3.77;;;1.93;;
26686;SDS011;14298;50.900;4.648;2022-10-16T04:06:17;3.20;;;1.80;;
26686;SDS011;14298;50.900;4.648;2022-10-16T04:08:45;2.23;;;1.50;;
26686;SDS011;14298;50.900;4.648;2022-10-16T04:11:13;5.53;;;1.70;;
26686;SDS011;14298;50.900;4.648;2022-10-16T04:13:42;4.10;;;1.97;;
26686;SDS011;14298;50.900;4.648;2022-10-16T04:16:12;2.17;;;1.70;;
26686;SDS011;14298;50.900;4.648;2022-10-16T04:18:40;3.17;;;2.00;;
26686;SDS011;14298;50.900;4.648;2022-10-16T04:21:09;3.40;;;1.80;;
26686;SDS011;14298;50.900;4.648;2022-10-16T04:23:37;7.33;;;2.20;;
26686;SDS011;14298;50.900;4.648;2022-10-16T04:26:05;1.70;;;1.50;;
26686;SDS011;14298;50.900;4.648;2022-10-16T04:28:34;3.77;;;1.97;;
26686;SDS011;14298;50.900;4.648;2022-10-16T04:31:05;3.93;;;2.20;;
26686;SDS011;14298;50.900;4.648;2022-10-16T04:33:34;2.30;;;1.97;;
26686;SDS011;14298;50.900;4.648;2022-10-16T04:36:03;2.00;;;1.90;;
26686;SDS011;14298;50.900;4.648;2022-10-16T04:41:19;2.93;;;2.00;;
26686;SDS011;14298;50.900;4.648;2022-10-16T04:43:48;2.10;;;1.87;;
26686;SDS011;14298;50.900;4.648;2022-10-16T04:46:16;2.67;;;1.90;;
26686;SDS011;14298;50.900;4.648;2022-10-16T04:48:44;5.57;;;2.50;;
26686;SDS011;14298;50.900;4.648;2022-10-16T04:51:13;2.20;;;2.00;;
26686;SDS011;14298;50.900;4.648;2022-10-16T04:53:41;3.40;;;2.00;;
26686;SDS011;14298;50.900;4.648;2022-10-16T04:56:10;5.20;;;2.20;;
26686;SDS011;14298;50.900;4.648;2022-10-16T04:58:38;5.87;;;2.17;;
26686;SDS011;14298;50.900;4.648;2022-10-16T05:01:06;5.13;;;2.27;;
26686;SDS011;14298;50.900;4.648;2022-10-16T05:03:34;3.67;;;1.90;;
26686;SDS011;14298;50.900;4.648;2022-10-16T05:06:04;4.00;;;2.07;;
26686;SDS011;14298;50.900;4.648;2022-10-16T05:08:34;4.10;;;2.10;;
26686;SDS011;14298;50.900;4.648;2022-10-16T05:11:02;4.03;;;2.50;;
26686;SDS011;14298;50.900;4.648;2022-10-16T05:13:30;5.57;;;2.00;;
26686;SDS011;14298;50.900;4.648;2022-10-16T05:15:59;3.10;;;1.90;;
26686;SDS011;14298;50.900;4.648;2022-10-16T05:18:27;5.17;;;2.77;;
26686;SDS011;14298;50.900;4.648;2022-10-16T05:20:55;4.27;;;2.70;;
26686;SDS011;14298;50.900;4.648;2022-10-16T05:23:24;4.80;;;2.53;;
26686;SDS011;14298;50.900;4.648;2022-10-16T05:25:53;8.27;;;2.90;;
26686;SDS011;14298;50.900;4.648;2022-10-16T05:28:29;4.50;;;2.17;;
26686;SDS011;14298;50.900;4.648;2022-10-16T05:30:56;3.30;;;2.30;;
26686;SDS011;14298;50.900;4.648;2022-10-16T05:33:26;2.90;;;2.50;;
26686;SDS011;14298;50.900;4.648;2022-10-16T05:35:54;3.33;;;2.23;;
26686;SDS011;14298;50.900;4.648;2022-10-16T05:38:22;5.17;;;2.73;;
26686;SDS011;14298;50.900;4.648;2022-10-16T05:40:51;4.27;;;2.07;;
26686;SDS011;14298;50.900;4.648;2022-10-16T05:43:20;5.43;;;2.43;;
26686;SDS011;14298;50.900;4.648;2022-10-16T05:45:55;3.20;;;2.37;;
26686;SDS011;14298;50.900;4.648;2022-10-16T05:48:25;5.90;;;3.00;;
26686;SDS011;14298;50.900;4.648;2022-10-16T05:51:03;5.83;;;2.47;;
26686;SDS011;14298;50.900;4.648;2022-10-16T05:53:28;9.93;;;2.80;;
26686;SDS011;14298;50.900;4.648;2022-10-16T05:55:57;5.70;;;2.60;;
26686;SDS011;14298;50.900;4.648;2022-10-16T05:58:30;5.63;;;2.50;;
26686;SDS011;14298;50.900;4.648;2022-10-16T06:01:03;7.20;;;2.50;;
26686;SDS011;14298;50.900;4.648;2022-10-16T06:03:34;5.47;;;2.47;;
26686;SDS011;14298;50.900;4.648;2022-10-16T06:06:12;3.97;;;2.63;;
26686;SDS011;14298;50.900;4.648;2022-10-16T06:08:43;5.97;;;2.70;;
26686;SDS011;14298;50.900;4.648;2022-10-16T06:11:13;5.70;;;2.60;;
26686;SDS011;14298;50.900;4.648;2022-10-16T06:13:43;5.23;;;2.77;;
26686;SDS011;14298;50.900;4.648;2022-10-16T06:16:12;6.83;;;2.30;;
26686;SDS011;14298;50.900;4.648;2022-10-16T06:21:28;7.17;;;2.80;;
26686;SDS011;14298;50.900;4.648;2022-10-16T06:23:57;3.60;;;2.67;;
26686;SDS011;14298;50.900;4.648;2022-10-16T06:26:27;5.90;;;2.70;;
26686;SDS011;14298;50.900;4.648;2022-10-16T06:28:57;5.50;;;2.90;;
26686;SDS011;14298;50.900;4.648;2022-10-16T06:31:26;6.60;;;2.37;;
26686;SDS011;14298;50.900;4.648;2022-10-16T06:33:57;4.43;;;3.63;;
26686;SDS011;14298;50.900;4.648;2022-10-16T06:36:26;5.27;;;2.77;;
26686;SDS011;14298;50.900;4.648;2022-10-16T06:38:55;5.93;;;2.83;;
26686;SDS011;14298;50.900;4.648;2022-10-16T06:41:23;6.87;;;2.80;;
26686;SDS011;14298;50.900;4.648;2022-10-16T06:43:52;6.90;;;2.90;;
26686;SDS011;14298;50.900;4.648;2022-10-16T06:46:21;4.77;;;3.53;;
26686;SDS011;14298;50.900;4.648;2022-10-16T06:48:51;8.23;;;3.63;;
26686;SDS011;14298;50.900;4.648;2022-10-16T06:51:23;4.57;;;3.00;;
26686;SDS011;14298;50.900;4.648;2022-10-16T06:56:39;4.73;;;3.20;;
26686;SDS011;14298;50.900;4.648;2022-10-16T06:59:07;3.67;;;2.93;;
26686;SDS011;14298;50.900;4.648;2022-10-16T07:01:36;4.70;;;2.50;;
26686;SDS011;14298;50.900;4.648;2022-10-16T07:04:04;2.67;;;2.43;;
26686;SDS011;14298;50.900;4.648;2022-10-16T07:06:33;2.80;;;2.30;;
26686;SDS011;14298;50.900;4.648;2022-10-16T07:09:03;4.80;;;2.57;;
26686;SDS011;14298;50.900;4.648;2022-10-16T07:11:33;5.17;;;2.23;;
26686;SDS011;14298;50.900;4.648;2022-10-16T07:14:02;4.23;;;2.70;;
26686;SDS011;14298;50.900;4.648;2022-10-16T07:19:18;3.50;;;1.90;;
26686;SDS011;14298;50.900;4.648;2022-10-16T07:21:46;4.47;;;2.60;;
26686;SDS011;14298;50.900;4.648;2022-10-16T07:24:15;4.83;;;2.10;;
26686;SDS011;14298;50.900;4.648;2022-10-16T07:26:44;3.10;;;2.00;;
26686;SDS011;14298;50.900;4.648;2022-10-16T07:29:14;5.13;;;1.97;;
26686;SDS011;14298;50.900;4.648;2022-10-16T07:31:45;5.17;;;2.17;;
26686;SDS011;14298;50.900;4.648;2022-10-16T07:34:15;4.53;;;1.80;;
26686;SDS011;14298;50.900;4.648;2022-10-16T07:36:47;2.03;;;1.83;;
26686;SDS011;14298;50.900;4.648;2022-10-16T07:39:16;7.47;;;1.77;;
26686;SDS011;14298;50.900;4.648;2022-10-16T07:41:44;4.33;;;1.90;;
26686;SDS011;14298;50.900;4.648;2022-10-16T07:44:13;3.03;;;1.70;;
26686;SDS011;14298;50.900;4.648;2022-10-16T07:46:42;2.43;;;1.50;;
26686;SDS011;14298;50.900;4.648;2022-10-16T07:49:10;3.30;;;1.60;;
26686;SDS011;14298;50.900;4.648;2022-10-16T07:51:39;3.00;;;1.90;;
26686;SDS011;14298;50.900;4.648;2022-10-16T07:54:08;4.03;;;1.83;;
26686;SDS011;14298;50.900;4.648;2022-10-16T07:56:37;4.23;;;1.40;;
26686;SDS011;14298;50.900;4.648;2022-10-16T07:59:05;5.87;;;1.40;;
26686;SDS011;14298;50.900;4.648;2022-10-16T08:01:34;3.10;;;1.33;;
26686;SDS011;14298;50.900;4.648;2022-10-16T08:04:02;2.10;;;1.30;;
26686;SDS011;14298;50.900;4.648;2022-10-16T08:06:34;3.23;;;1.30;;
26686;SDS011;14298;50.900;4.648;2022-10-16T08:09:02;3.10;;;1.40;;
26686;SDS011;14298;50.900;4.648;2022-10-16T08:11:31;1.83;;;1.17;;
26686;SDS011;14298;50.900;4.648;2022-10-16T08:14:00;2.17;;;1.23;;
26686;SDS011;14298;50.900;4.648;2022-10-16T08:16:29;4.40;;;1.60;;
26686;SDS011;14298;50.900;4.648;2022-10-16T08:18:57;5.40;;;1.30;;
26686;SDS011;14298;50.900;4.648;2022-10-16T08:21:25;4.40;;;1.47;;
26686;SDS011;14298;50.900;4.648;2022-10-16T08:23:54;2.40;;;1.10;;
26686;SDS011;14298;50.900;4.648;2022-10-16T08:26:22;1.30;;;0.90;;
26686;SDS011;14298;50.900;4.648;2022-10-16T08:28:51;2.13;;;1.00;;
26686;SDS011;14298;50.900;4.648;2022-10-16T08:31:20;2.17;;;1.27;;
26686;SDS011;14298;50.900;4.648;2022-10-16T08:33:49;4.20;;;0.90;;
26686;SDS011;14298;50.900;4.648;2022-10-16T08:36:18;2.13;;;0.87;;
26686;SDS011;14298;50.900;4.648;2022-10-16T08:38:47;1.93;;;0.87;;
26686;SDS011;14298;50.900;4.648;2022-10-16T08:44:14;3.17;;;1.10;;
26686;SDS011;14298;50.900;4.648;2022-10-16T08:49:29;2.40;;;0.80;;
26686;SDS011;14298;50.900;4.648;2022-10-16T08:51:58;1.82;;;1.00;;
26686;SDS011;14298;50.900;4.648;2022-10-16T08:54:45;4.78;;;1.15;;
26686;SDS011;14298;50.900;4.648;2022-10-16T08:57:19;3.40;;;1.07;;
26686;SDS011;14298;50.900;4.648;2022-10-16T08:59:50;3.92;;;1.47;;
26686;SDS011;14298;50.900;4.648;2022-10-16T09:07:32;4.17;;;2.52;;
26686;SDS011;14298;50.900;4.648;2022-10-16T09:15:40;4.67;;;1.50;;
26686;SDS011;14298;50.900;4.648;2022-10-16T09:18:22;4.70;;;1.90;;
26686;SDS011;14298;50.900;4.648;2022-10-16T09:20:59;3.02;;;1.02;;
26686;SDS011;14298;50.900;4.648;2022-10-16T09:23:33;2.60;;;1.15;;
26686;SDS011;14298;50.900;4.648;2022-10-16T09:26:02;3.77;;;0.85;;
26686;SDS011;14298;50.900;4.648;2022-10-16T09:28:32;3.20;;;0.82;;
26686;SDS011;14298;50.900;4.648;2022-10-16T09:31:01;4.05;;;0.90;;
26686;SDS011;14298;50.900;4.648;2022-10-16T09:33:30;5.60;;;1.00;;
26686;SDS011;14298;50.900;4.648;2022-10-16T09:36:06;2.08;;;1.00;;
26686;SDS011;14298;50.900;4.648;2022-10-16T09:38:37;1.85;;;1.00;;
26686;SDS011;14298;50.900;4.648;2022-10-16T09:47:00;4.57;;;1.10;;
26686;SDS011;14298;50.900;4.648;2022-10-16T09:49:33;6.33;;;1.10;;
26686;SDS011;14298;50.900;4.648;2022-10-16T09:54:54;6.10;;;1.00;;
26686;SDS011;14298;50.900;4.648;2022-10-16T09:57:25;2.87;;;1.03;;
26686;SDS011;14298;50.900;4.648;2022-10-16T09:59:55;6.67;;;1.00;;
26686;SDS011;14298;50.900;4.648;2022-10-16T10:02:29;5.73;;;1.20;;
26686;SDS011;14298;50.900;4.648;2022-10-16T10:04:59;5.50;;;1.50;;
26686;SDS011;14298;50.900;4.648;2022-10-16T10:07:39;2.50;;;0.90;;
26686;SDS011;14298;50.900;4.648;2022-10-16T10:10:22;4.27;;;0.90;;
26686;SDS011;14298;50.900;4.648;2022-10-16T10:12:55;5.57;;;0.90;;
26686;SDS011;14298;50.900;4.648;2022-10-16T10:15:24;6.33;;;1.10;;
26686;SDS011;14298;50.900;4.648;2022-10-16T10:20:45;6.27;;;0.90;;
26686;SDS011;14298;50.900;4.648;2022-10-16T10:23:22;4.07;;;1.00;;
26686;SDS011;14298;50.900;4.648;2022-10-16T10:25:54;7.83;;;1.00;;
26686;SDS011;14298;50.900;4.648;2022-10-16T10:37:24;5.20;;;0.90;;
26686;SDS011;14298;50.900;4.648;2022-10-16T10:40:30;2.30;;;0.70;;
26686;SDS011;14298;50.900;4.648;2022-10-16T10:43:05;6.43;;;1.10;;
26686;SDS011;14298;50.900;4.648;2022-10-16T10:45:48;3.20;;;0.83;;
26686;SDS011;14298;50.900;4.648;2022-10-16T10:48:21;2.47;;;0.80;;
26686;SDS011;14298;50.900;4.648;2022-10-16T10:50:57;1.40;;;0.70;;
26686;SDS011;14298;50.900;4.648;2022-10-16T10:53:31;3.83;;;0.97;;
26686;SDS011;14298;50.900;4.648;2022-10-16T10:59:02;3.00;;;0.77;;
26686;SDS011;14298;50.900;4.648;2022-10-16T11:02:10;4.57;;;1.07;;
26686;SDS011;14298;50.900;4.648;2022-10-16T11:07:34;1.87;;;0.73;;
26686;SDS011;14298;50.900;4.648;2022-10-16T11:10:18;5.23;;;0.80;;
26686;SDS011;14298;50.900;4.648;2022-10-16T11:12:52;5.57;;;1.00;;
26686;SDS011;14298;50.900;4.648;2022-10-16T11:15:28;4.13;;;1.30;;
26686;SDS011;14298;50.900;4.648;2022-10-16T11:18:03;4.83;;;1.13;;
26686;SDS011;14298;50.900;4.648;2022-10-16T11:20:34;3.17;;;0.80;;
26686;SDS011;14298;50.900;4.648;2022-10-16T11:23:00;3.00;;;0.80;;
26686;SDS011;14298;50.900;4.648;2022-10-16T11:25:32;1.03;;;0.53;;
26686;SDS011;14298;50.900;4.648;2022-10-16T11:28:02;2.40;;;0.80;;
26686;SDS011;14298;50.900;4.648;2022-10-16T11:30:33;3.60;;;0.60;;
26686;SDS011;14298;50.900;4.648;2022-10-16T11:36:06;3.87;;;1.27;;
26686;SDS011;14298;50.900;4.648;2022-10-16T11:41:29;4.83;;;1.10;;
26686;SDS011;14298;50.900;4.648;2022-10-16T11:46:44;3.73;;;0.97;;
26686;SDS011;14298;50.900;4.648;2022-10-16T11:49:20;4.30;;;0.90;;
26686;SDS011;14298;50.900;4.648;2022-10-16T11:52:38;3.63;;;0.70;;
26686;SDS011;14298;50.900;4.648;2022-10-16T11:54:43;5.20;;;1.47;;
26686;SDS011;14298;50.900;4.648;2022-10-16T11:57:23;5.17;;;1.50;;
26686;SDS011;14298;50.900;4.648;2022-10-16T11:59:57;3.33;;;1.27;;
26686;SDS011;14298;50.900;4.648;2022-10-16T12:10:46;4.10;;;1.00;;
26686;SDS011;14298;50.900;4.648;2022-10-16T12:18:43;2.93;;;0.80;;
26686;SDS011;14298;50.900;4.648;2022-10-16T12:21:14;4.63;;;0.63;;
26686;SDS011;14298;50.900;4.648;2022-10-16T12:23:50;4.20;;;0.70;;
26686;SDS011;14298;50.900;4.648;2022-10-16T12:26:26;4.27;;;1.13;;
26686;SDS011;14298;50.900;4.648;2022-10-16T12:29:08;5.60;;;1.00;;
26686;SDS011;14298;50.900;4.648;2022-10-16T12:37:13;2.20;;;0.80;;
26686;SDS011;14298;50.900;4.648;2022-10-16T12:39:49;1.97;;;0.90;;
26686;SDS011;14298;50.900;4.648;2022-10-16T12:42:23;5.23;;;1.03;;
26686;SDS011;14298;50.900;4.648;2022-10-16T12:44:56;1.87;;;0.70;;
26686;SDS011;14298;50.900;4.648;2022-10-16T12:50:02;2.10;;;0.90;;
26686;SDS011;14298;50.900;4.648;2022-10-16T12:55:05;4.97;;;0.70;;
26686;SDS011;14298;50.900;4.648;2022-10-16T13:06:12;2.10;;;0.73;;
26686;SDS011;14298;50.900;4.648;2022-10-16T13:20:27;2.33;;;0.80;;
26686;SDS011;14298;50.900;4.648;2022-10-16T13:23:09;2.50;;;0.87;;
26686;SDS011;14298;50.900;4.648;2022-10-16T13:28:27;1.83;;;0.63;;
26686;SDS011;14298;50.900;4.648;2022-10-16T13:30:58;0.70;;;0.47;;
26686;SDS011;14298;50.900;4.648;2022-10-16T13:33:35;1.70;;;0.70;;
26686;SDS011;14298;50.900;4.648;2022-10-16T13:36:06;2.07;;;0.60;;
26686;SDS011;14298;50.900;4.648;2022-10-16T13:38:36;3.00;;;0.73;;
26686;SDS011;14298;50.900;4.648;2022-10-16T13:41:05;2.30;;;0.70;;
26686;SDS011;14298;50.900;4.648;2022-10-16T13:43:43;4.33;;;0.80;;
26686;SDS011;14298;50.900;4.648;2022-10-16T13:46:22;4.10;;;0.90;;
26686;SDS011;14298;50.900;4.648;2022-10-16T13:51:30;4.33;;;1.10;;
26686;SDS011;14298;50.900;4.648;2022-10-16T13:53:59;5.10;;;0.70;;
26686;SDS011;14298;50.900;4.648;2022-10-16T13:56:29;4.07;;;0.83;;
26686;SDS011;14298;50.900;4.648;2022-10-16T13:59:03;3.20;;;1.13;;
26686;SDS011;14298;50.900;4.648;2022-10-16T14:01:40;3.70;;;0.93;;
26686;SDS011;14298;50.900;4.648;2022-10-16T14:04:10;3.10;;;0.90;;
26686;SDS011;14298;50.900;4.648;2022-10-16T14:09:29;5.67;;;1.23;;
26686;SDS011;14298;50.900;4.648;2022-10-16T14:11:59;4.57;;;1.17;;
26686;SDS011;14298;50.900;4.648;2022-10-16T14:14:49;2.47;;;0.90;;
26686;SDS011;14298;50.900;4.648;2022-10-16T14:17:22;4.53;;;1.00;;
26686;SDS011;14298;50.900;4.648;2022-10-16T14:19:52;2.33;;;0.93;;
26686;SDS011;14298;50.900;4.648;2022-10-16T14:30:51;2.80;;;0.97;;
26686;SDS011;14298;50.900;4.648;2022-10-16T14:33:30;3.50;;;1.10;;
26686;SDS011;14298;50.900;4.648;2022-10-16T14:38:32;4.50;;;0.90;;
26686;SDS011;14298;50.900;4.648;2022-10-16T14:41:00;3.30;;;0.90;;
26686;SDS011;14298;50.900;4.648;2022-10-16T14:43:37;1.67;;;0.80;;
26686;SDS011;14298;50.900;4.648;2022-10-16T14:48:42;3.67;;;0.80;;
26686;SDS011;14298;50.900;4.648;2022-10-16T14:51:16;4.07;;;0.90;;
26686;SDS011;14298;50.900;4.648;2022-10-16T14:53:46;2.53;;;0.70;;
26686;SDS011;14298;50.900;4.648;2022-10-16T14:56:18;3.37;;;0.70;;
26686;SDS011;14298;50.900;4.648;2022-10-16T14:59:04;4.80;;;1.07;;
26686;SDS011;14298;50.900;4.648;2022-10-16T15:01:32;3.27;;;0.90;;
26686;SDS011;14298;50.900;4.648;2022-10-16T15:04:01;2.43;;;0.80;;
26686;SDS011;14298;50.900;4.648;2022-10-16T15:06:29;3.80;;;1.10;;
26686;SDS011;14298;50.900;4.648;2022-10-16T15:08:57;2.30;;;0.90;;
26686;SDS011;14298;50.900;4.648;2022-10-16T15:11:26;2.37;;;0.80;;
26686;SDS011;14298;50.900;4.648;2022-10-16T15:13:54;1.73;;;0.70;;
26686;SDS011;14298;50.900;4.648;2022-10-16T15:16:22;3.97;;;0.87;;
26686;SDS011;14298;50.900;4.648;2022-10-16T15:21:38;2.70;;;0.80;;
26686;SDS011;14298;50.900;4.648;2022-10-16T15:24:15;1.77;;;0.80;;
26686;SDS011;14298;50.900;4.648;2022-10-16T15:26:40;3.77;;;1.17;;
26686;SDS011;14298;50.900;4.648;2022-10-16T15:29:09;5.50;;;1.03;;
26686;SDS011;14298;50.900;4.648;2022-10-16T15:31:37;7.33;;;1.00;;
26686;SDS011;14298;50.900;4.648;2022-10-16T15:34:08;3.37;;;1.07;;
26686;SDS011;14298;50.900;4.648;2022-10-16T15:36:38;5.90;;;1.00;;
26686;SDS011;14298;50.900;4.648;2022-10-16T15:39:12;2.93;;;1.00;;
26686;SDS011;14298;50.900;4.648;2022-10-16T15:41:41;2.20;;;0.80;;
26686;SDS011;14298;50.900;4.648;2022-10-16T15:44:11;1.70;;;0.83;;
26686;SDS011;14298;50.900;4.648;2022-10-16T15:46:40;2.77;;;1.20;;
26686;SDS011;14298;50.900;4.648;2022-10-16T15:49:08;2.60;;;0.70;;
26686;SDS011;14298;50.900;4.648;2022-10-16T15:51:39;3.17;;;0.90;;
26686;SDS011;14298;50.900;4.648;2022-10-16T15:54:08;1.60;;;0.70;;
26686;SDS011;14298;50.900;4.648;2022-10-16T15:56:36;2.50;;;0.90;;
26686;SDS011;14298;50.900;4.648;2022-10-16T15:59:05;1.87;;;0.77;;
26686;SDS011;14298;50.900;4.648;2022-10-16T16:01:34;2.47;;;1.00;;
26686;SDS011;14298;50.900;4.648;2022-10-16T16:04:03;3.80;;;0.83;;
26686;SDS011;14298;50.900;4.648;2022-10-16T16:06:31;2.20;;;0.80;;
26686;SDS011;14298;50.900;4.648;2022-10-16T16:09:00;2.23;;;0.70;;
26686;SDS011;14298;50.900;4.648;2022-10-16T16:11:29;3.20;;;0.80;;
26686;SDS011;14298;50.900;4.648;2022-10-16T16:13:59;1.30;;;0.70;;
26686;SDS011;14298;50.900;4.648;2022-10-16T16:16:27;3.40;;;0.97;;
26686;SDS011;14298;50.900;4.648;2022-10-16T16:18:55;4.73;;;1.00;;
26686;SDS011;14298;50.900;4.648;2022-10-16T16:21:24;5.87;;;1.20;;
26686;SDS011;14298;50.900;4.648;2022-10-16T16:23:52;2.33;;;0.80;;
26686;SDS011;14298;50.900;4.648;2022-10-16T16:26:27;5.17;;;1.50;;
26686;SDS011;14298;50.900;4.648;2022-10-16T16:29:02;4.47;;;1.37;;
26686;SDS011;14298;50.900;4.648;2022-10-16T16:31:32;2.63;;;1.20;;
26686;SDS011;14298;50.900;4.648;2022-10-16T16:34:01;5.10;;;1.43;;
26686;SDS011;14298;50.900;4.648;2022-10-16T16:36:29;2.20;;;1.20;;
26686;SDS011;14298;50.900;4.648;2022-10-16T16:38:58;6.27;;;1.87;;
26686;SDS011;14298;50.900;4.648;2022-10-16T16:41:28;5.23;;;1.73;;
26686;SDS011;14298;50.900;4.648;2022-10-16T16:44:05;4.93;;;1.20;;
26686;SDS011;14298;50.900;4.648;2022-10-16T16:46:35;5.17;;;1.93;;
26686;SDS011;14298;50.900;4.648;2022-10-16T16:49:05;5.27;;;2.10;;
26686;SDS011;14298;50.900;4.648;2022-10-16T16:51:34;9.13;;;2.03;;
26686;SDS011;14298;50.900;4.648;2022-10-16T16:54:02;4.87;;;2.30;;
26686;SDS011;14298;50.900;4.648;2022-10-16T16:56:31;6.77;;;1.93;;
26686;SDS011;14298;50.900;4.648;2022-10-16T16:58:59;6.80;;;1.93;;
26686;SDS011;14298;50.900;4.648;2022-10-16T17:01:28;7.90;;;2.60;;
26686;SDS011;14298;50.900;4.648;2022-10-16T17:03:58;7.40;;;2.83;;
26686;SDS011;14298;50.900;4.648;2022-10-16T17:06:28;8.77;;;2.90;;
26686;SDS011;14298;50.900;4.648;2022-10-16T17:08:57;6.40;;;3.27;;
26686;SDS011;14298;50.900;4.648;2022-10-16T17:11:27;5.10;;;3.10;;
26686;SDS011;14298;50.900;4.648;2022-10-16T17:13:57;4.70;;;2.57;;
26686;SDS011;14298;50.900;4.648;2022-10-16T17:16:27;6.33;;;5.40;;
26686;SDS011;14298;50.900;4.648;2022-10-16T17:19:01;15.73;;;6.47;;
26686;SDS011;14298;50.900;4.648;2022-10-16T17:21:30;12.67;;;7.97;;
26686;SDS011;14298;50.900;4.648;2022-10-16T17:23:59;12.03;;;9.40;;
26686;SDS011;14298;50.900;4.648;2022-10-16T17:26:28;14.53;;;10.20;;
26686;SDS011;14298;50.900;4.648;2022-10-16T17:28:58;17.70;;;8.43;;
26686;SDS011;14298;50.900;4.648;2022-10-16T17:31:28;18.20;;;7.53;;
26686;SDS011;14298;50.900;4.648;2022-10-16T17:33:59;13.13;;;7.03;;
26686;SDS011;14298;50.900;4.648;2022-10-16T17:36:29;18.70;;;6.33;;
26686;SDS011;14298;50.900;4.648;2022-10-16T17:39:00;14.33;;;8.80;;
26686;SDS011;14298;50.900;4.648;2022-10-16T17:41:30;12.50;;;7.43;;
26686;SDS011;14298;50.900;4.648;2022-10-16T17:43:59;10.73;;;6.10;;
26686;SDS011;14298;50.900;4.648;2022-10-16T17:46:28;11.93;;;7.20;;